Time;durP1;ratioP1;P1;durP2;ratioP2;P2;SDS_P1;SDS_P2;PMS_P1;PMS_P2;Temp;Humidity;BMP_temperature;BMP_pressure;BME280_temperature;BME280_humidity;BME280_pressure;Samples;Min_cycle;Max_cycle;Signal;HPM_P1;HPM_P2
2024/01/20 00:01:07;;;;;;;31.80;11.63;;;;;;;-0.87;100.00;101721.19;5955446;29;20154;-74
2024/01/20 00:04:03;;;;;;;34.85;11.93;;;;;;;-0.86;100.00;101713.31;5955366;29;20413;-74
2024/01/20 00:06:58;;;;;;;26.30;11.85;;;;;;;-0.86;100.00;101717.66;5954707;29;20049;-74
2024/01/20 00:09:53;;;;;;;32.40;11.17;;;;;;;-0.86;100.00;101722.88;5956127;29;20619;-75
2024/01/20 00:12:49;;;;;;;26.77;11.10;;;;;;;-0.83;100.00;101725.38;5949975;29;20039;-76
2024/01/20 00:15:44;;;;;;;30.25;10.35;;;;;;;-0.87;100.00;101705.56;5948822;29;20027;-74
2024/01/20 00:18:39;;;;;;;29.73;11.37;;;;;;;-0.85;100.00;101724.59;5943804;29;20032;-74
2024/01/20 00:21:35;;;;;;;24.97;10.90;;;;;;;-0.87;100.00;101716.00;5961280;29;20394;-74
2024/01/20 00:24:30;;;;;;;30.03;12.07;;;;;;;-0.82;100.00;101716.69;5939797;29;20042;-74
2024/01/20 00:27:26;;;;;;;31.60;11.60;;;;;;;-0.80;100.00;101718.34;5952834;29;20299;-74
2024/01/20 00:30:21;;;;;;;36.70;11.20;;;;;;;-0.82;100.00;101716.69;5943825;29;20043;-74
2024/01/20 00:33:16;;;;;;;25.10;11.23;;;;;;;-0.86;100.00;101717.66;5950519;29;20385;-76
2024/01/20 00:36:12;;;;;;;33.47;11.70;;;;;;;-0.79;100.00;101729.63;5937195;29;20024;-74
2024/01/20 00:39:07;;;;;;;24.30;9.85;;;;;;;-0.86;100.00;101728.09;5951535;29;20043;-74
2024/01/20 00:42:03;;;;;;;31.30;10.73;;;;;;;-0.91;100.00;101730.84;5953895;29;20027;-74
2024/01/20 00:44:58;;;;;;;25.65;10.75;;;;;;;-0.84;100.00;101732.34;5950620;29;20267;-74
2024/01/20 00:47:54;;;;;;;27.37;10.67;;;;;;;-0.81;100.00;101721.84;5945410;29;20028;-75
2024/01/20 00:50:52;;;;;;;34.25;11.73;;;;;;;-0.82;100.00;101727.09;5955584;29;20272;-76
2024/01/20 00:53:48;;;;;;;31.17;10.68;;;;;;;-0.88;100.00;101709.06;5960585;29;20027;-75
2024/01/20 00:56:43;;;;;;;33.30;11.63;;;;;;;-0.91;100.00;101714.38;5941844;29;20031;-75
2024/01/20 00:59:39;;;;;;;25.83;10.73;;;;;;;-0.81;100.00;101726.19;5938476;29;20032;-76
2024/01/20 01:02:39;;;;;;;29.08;10.90;;;;;;;-0.83;100.00;101717.56;5941875;29;20023;-75
2024/01/20 01:05:34;;;;;;;36.40;13.20;;;;;;;-0.79;100.00;101721.81;5956059;29;20420;-75
2024/01/20 01:09:05;;;;;;;34.97;11.77;;;;;;;-0.66;100.00;101736.97;5942343;29;20047;-76
2024/01/20 01:12:02;;;;;;;34.47;10.32;;;;;;;-0.66;100.00;101720.50;5954284;29;20074;-76
2024/01/20 01:14:59;;;;;;;29.05;10.63;;;;;;;-0.77;100.00;101707.84;5957849;29;20039;-75
2024/01/20 01:18:01;;;;;;;28.25;10.70;;;;;;;-0.73;100.00;101718.97;5956694;29;20042;-75
2024/01/20 01:20:57;;;;;;;;;;;;;;;-0.73;100.00;101729.38;5945147;29;20034;-74
2024/01/20 01:23:54;;;;;;;27.00;10.20;;;;;;;-0.74;100.00;101733.78;5933922;29;19957;-75
2024/01/20 01:26:58;;;;;;;33.13;12.85;;;;;;;-0.78;100.00;101732.16;5957005;29;20024;-75
2024/01/20 01:29:54;;;;;;;27.52;10.25;;;;;;;-0.78;100.00;101726.09;5941271;29;20077;-76
2024/01/20 01:32:54;;;;;;;29.50;12.63;;;;;;;-0.79;100.00;101724.41;5945447;29;20149;-76
2024/01/20 01:35:51;;;;;;;32.42;11.73;;;;;;;-0.74;100.00;101738.97;5952305;29;20036;-74
2024/01/20 01:39:09;;;;;;;28.30;11.23;;;;;;;-0.88;100.00;101724.69;5940610;29;20391;-75
2024/01/20 01:42:08;;;;;;;29.42;11.35;;;;;;;-0.81;100.00;101758.28;5956900;29;20586;-75
2024/01/20 01:45:45;;;;;;;27.38;11.68;;;;;;;-0.80;100.00;101761.75;5956833;29;20042;-76
2024/01/20 01:48:48;;;;;;;24.02;8.88;;;;;;;-0.87;100.00;101758.47;5946332;29;20047;-76
2024/01/20 01:51:48;;;;;;;36.72;11.30;;;;;;;-0.82;100.00;101767.00;5940216;29;20024;-76
2024/01/20 01:55:11;;;;;;;36.17;11.55;;;;;;;-0.96;100.00;101752.72;5943829;29;20442;-75
2024/01/20 01:58:30;;;;;;;29.05;10.65;;;;;;;-1.07;100.00;101739.19;5952459;29;20039;-76
2024/01/20 02:01:44;;;;;;;35.38;13.27;;;;;;;-0.88;100.00;101761.13;5955355;29;20046;-76
2024/01/20 02:04:47;;;;;;;27.48;10.88;;;;;;;-0.87;100.00;101766.28;5954851;29;20476;-76
2024/01/20 02:08:25;;;;;;;;;;;;;;;;;;;;;
2024/01/20 02:11:25;;;;;;;34.15;11.60;;;;;;;-0.86;100.00;101765.38;5951717;29;20115;-76
2024/01/20 02:14:33;;;;;;;24.80;10.35;;;;;;;-0.81;100.00;101760.03;5937184;29;20118;-76
2024/01/20 02:21:49;;;;;;;30.75;11.23;;;;;;;-0.75;100.00;101773.72;5952893;29;20048;-75
2024/01/20 02:24:54;;;;;;;27.45;9.95;;;;;;;-0.66;100.00;101789.06;5955071;29;20059;-76
2024/01/20 02:28:44;;;;;;;26.63;10.07;;;;;;;-0.55;100.00;101791.31;5957551;29;20048;-75
2024/01/20 02:31:44;;;;;;;32.45;10.18;;;;;;;-0.55;100.00;101785.25;5934755;29;20040;-75
2024/01/20 02:35:41;;;;;;;31.90;10.45;;;;;;;-0.76;100.00;101745.13;5939741;29;20056;-76
2024/01/20 02:39:07;;;;;;;28.20;11.27;;;;;;;-0.63;100.00;101770.72;5953775;29;20507;-75
2024/01/20 02:42:10;;;;;;;32.67;11.15;;;;;;;-0.72;100.00;101762.34;5950795;29;20676;-76
2024/01/20 02:45:19;;;;;;;31.35;10.75;;;;;;;-0.72;100.00;101765.81;5941664;29;20098;-77
2024/01/20 02:48:32;;;;;;;32.17;10.45;;;;;;;-0.73;100.00;101782.31;5934971;29;20488;-76
2024/01/20 02:51:32;;;;;;;28.88;11.63;;;;;;;-0.75;100.00;101794.53;5940367;29;20552;-76
2024/01/20 02:54:32;;;;;;;32.72;11.50;;;;;;;-0.82;100.00;101773.97;5952819;29;20031;-75
2024/01/20 02:57:39;;;;;;;33.25;11.07;;;;;;;-0.72;100.00;101798.81;5934031;29;20039;-75
2024/01/20 03:00:58;;;;;;;32.80;11.88;;;;;;;-0.72;100.00;101788.38;5951045;29;20107;-76
2024/01/20 03:04:11;;;;;;;26.27;11.48;;;;;;;-0.71;100.00;101779.69;5940739;29;20452;-76
2024/01/20 03:07:25;;;;;;;27.73;10.93;;;;;;;-0.52;100.00;101804.25;5941000;29;20042;-76
2024/01/20 03:10:29;;;;;;;30.83;11.52;;;;;;;-0.56;100.00;101804.38;5948306;29;20031;-76
2024/01/20 03:13:42;;;;;;;39.00;11.77;;;;;;;-0.77;100.00;101777.28;5954255;29;20083;-75
2024/01/20 03:16:52;;;;;;;28.80;11.80;;;;;;;-0.61;100.00;101807.13;5936418;29;20131;-75
2024/01/20 03:19:54;;;;;;;31.13;10.63;;;;;;;-0.66;100.00;101783.84;5937124;29;20035;-76
2024/01/20 03:23:01;;;;;;;38.25;12.00;;;;;;;-0.57;100.00;101797.47;5936226;29;20088;-76
2024/01/20 03:25:57;;;;;;;32.95;11.13;;;;;;;-0.53;100.00;101804.28;5971017;28;20041;-75
2024/01/20 03:28:55;;;;;;;34.73;11.47;;;;;;;-0.55;100.00;101796.53;5957644;29;20031;-76
2024/01/20 03:31:51;;;;;;;37.92;10.43;;;;;;;-0.68;100.00;101782.19;5954078;29;20275;-76
2024/01/20 03:34:49;;;;;;;40.22;11.38;;;;;;;-0.67;100.00;101796.91;5951014;29;20028;-76
2024/01/20 03:37:48;;;;;;;25.88;9.48;;;;;;;-0.72;100.00;101796.19;5938370;29;20043;-76
2024/01/20 03:41:06;;;;;;;36.80;11.68;;;;;;;-0.73;100.00;101795.34;5940012;29;20055;-76
2024/01/20 03:44:06;;;;;;;39.08;11.45;;;;;;;-0.71;100.00;101810.94;5935474;29;20059;-75
2024/01/20 03:47:04;;;;;;;28.35;11.07;;;;;;;-0.69;100.00;101816.94;5938689;29;20191;-75
2024/01/20 03:49:59;;;;;;;27.02;11.00;;;;;;;-0.60;100.00;101829.69;5937505;29;20071;-75
2024/01/20 03:52:56;;;;;;;35.13;10.95;;;;;;;-0.67;100.00;101810.78;5953456;29;20074;-75
2024/01/20 03:55:52;;;;;;;26.38;11.10;;;;;;;-0.57;100.00;101829.56;5937560;29;20400;-75
2024/01/20 03:58:58;;;;;;;;;;;;;;;;;;;;;
2024/01/20 04:01:54;;;;;;;34.10;12.18;;;;;;;-0.55;100.00;101838.19;5947619;28;20148;-75
2024/01/20 04:04:53;;;;;;;30.58;10.13;;;;;;;-0.63;100.00;101835.84;5934385;29;20036;-76
2024/01/20 04:07:50;;;;;;;34.75;12.65;;;;;;;-0.69;100.00;101824.75;5937966;29;20063;-75
2024/01/20 04:10:45;;;;;;;31.58;11.95;;;;;;;-0.66;100.00;101824.66;5927064;29;20407;-75
2024/01/20 04:13:41;;;;;;;35.28;10.73;;;;;;;-0.57;100.00;101845.19;5935044;29;20059;-76
2024/01/20 04:16:37;;;;;;;38.03;11.95;;;;;;;-0.60;100.00;101835.72;5955339;29;20058;-75
2024/01/20 04:19:32;;;;;;;38.72;12.98;;;;;;;-0.54;100.00;101849.47;5950483;29;20479;-75
2024/01/20 04:22:28;;;;;;;36.20;10.90;;;;;;;-0.49;100.00;101848.41;5954679;29;20110;-75
2024/01/20 04:25:23;;;;;;;27.10;11.17;;;;;;;-0.56;100.00;101841.69;5954380;29;20037;-75
2024/01/20 04:28:25;;;;;;;29.75;10.10;;;;;;;-0.58;100.00;101840.03;5942874;29;20287;-77
2024/01/20 04:31:31;;;;;;;36.78;11.77;;;;;;;-0.67;100.00;101829.00;5951600;29;20048;-77
2024/01/20 04:34:27;;;;;;;25.60;9.73;;;;;;;-0.49;100.00;101847.56;5953124;29;20040;-75
2024/01/20 04:37:22;;;;;;;28.73;10.95;;;;;;;-0.66;100.00;101843.75;5937004;29;20044;-75
2024/01/20 04:40:18;;;;;;;36.17;11.23;;;;;;;-0.58;100.00;101864.34;5952363;29;20035;-76
2024/01/20 04:43:13;;;;;;;32.95;10.90;;;;;;;-0.69;100.00;101845.56;5952170;29;20043;-75
2024/01/20 04:46:10;;;;;;;26.43;9.87;;;;;;;-0.74;100.00;101860.50;5947036;29;20119;-75
2024/01/20 04:49:08;;;;;;;35.00;11.25;;;;;;;-0.84;100.00;101867.72;5937489;29;20327;-75
2024/01/20 04:52:05;;;;;;;28.98;11.00;;;;;;;-0.99;100.00;101843.91;5938169;29;20435;-75
2024/01/20 04:55:01;;;;;;;29.27;10.18;;;;;;;-0.85;100.00;101866.03;5933474;29;20506;-75
2024/01/20 04:57:56;;;;;;;29.10;10.63;;;;;;;-0.78;100.00;101871.88;5945941;29;20032;-76
2024/01/20 05:00:56;;;;;;;26.87;10.73;;;;;;;-0.90;100.00;101865.31;5956319;29;20086;-75
2024/01/20 05:03:52;;;;;;;24.98;10.00;;;;;;;-0.94;100.00;101852.41;5932885;29;20055;-75
2024/01/20 05:06:48;;;;;;;33.72;11.45;;;;;;;-0.91;100.00;101862.75;5949688;29;20038;-75
2024/01/20 05:09:43;;;;;;;25.08;9.93;;;;;;;-0.85;100.00;101878.19;5947389;29;20400;-76
2024/01/20 05:12:48;;;;;;;28.00;9.73;;;;;;;-0.96;100.00;101873.28;5951755;29;20031;-75
2024/01/20 05:15:45;;;;;;;35.75;10.68;;;;;;;-1.03;100.00;101876.13;5935720;29;20107;-76
2024/01/20 05:18:48;;;;;;;26.40;10.73;;;;;;;-1.00;100.00;101883.81;5949403;29;20392;-75
2024/01/20 05:21:44;;;;;;;29.45;9.95;;;;;;;-0.97;100.00;101891.53;5932933;29;20875;-75
2024/01/20 05:24:39;;;;;;;25.15;8.00;;;;;;;-0.99;100.00;101890.75;5952822;29;20280;-75
2024/01/20 05:27:35;;;;;;;23.10;8.67;;;;;;;-1.03;100.00;101881.31;5950442;29;20584;-75
2024/01/20 05:30:31;;;;;;;24.85;9.55;;;;;;;-0.97;100.00;101899.34;5945503;29;20269;-76
2024/01/20 05:33:58;;;;;;;24.90;9.10;;;;;;;-1.12;100.00;101874.63;5944541;29;20120;-75
2024/01/20 05:36:56;;;;;;;19.98;8.63;;;;;;;-0.94;100.00;101907.94;5938776;29;20039;-75
2024/01/20 05:39:51;;;;;;;28.13;8.90;;;;;;;-1.02;100.00;101893.44;5948480;29;20082;-76
2024/01/20 05:42:47;;;;;;;24.90;9.10;;;;;;;-1.00;100.00;101899.44;5953060;29;20032;-76
2024/01/20 05:45:42;;;;;;;22.95;7.88;;;;;;;-1.01;100.00;101911.63;5957868;29;20031;-76
2024/01/20 05:49:31;;;;;;;21.03;7.47;;;;;;;-1.09;100.00;101878.91;5957698;29;20123;-77
2024/01/20 05:52:27;;;;;;;16.38;7.68;;;;;;;-1.17;100.00;101868.72;5906022;29;20036;-76
2024/01/20 05:55:44;;;;;;;17.37;7.10;;;;;;;-1.21;100.00;101882.69;5920685;29;20063;-76
2024/01/20 05:58:46;;;;;;;27.30;7.45;;;;;;;-1.06;100.00;101913.47;5972161;29;20039;-75
2024/01/20 06:01:50;;;;;;;18.70;7.47;;;;;;;-0.99;100.00;101929.78;5934118;29;20035;-75
2024/01/20 06:04:54;;;;;;;21.67;6.88;;;;;;;-1.28;100.00;101892.41;5939560;29;20089;-76
2024/01/20 06:07:50;;;;;;;15.73;6.95;;;;;;;-1.15;100.00;101918.09;5950434;29;20460;-75
2024/01/20 06:11:02;;;;;;;19.92;7.75;;;;;;;-1.09;100.00;101917.94;5956943;29;20027;-76
2024/01/20 06:14:07;;;;;;;17.98;6.97;;;;;;;-1.32;100.00;101902.94;5940316;29;20178;-75
2024/01/20 06:17:28;;;;;;;17.70;7.43;;;;;;;-1.12;100.00;101941.44;5944171;29;20114;-75
2024/01/20 06:20:52;;;;;;;15.77;6.63;;;;;;;-1.16;100.00;101943.25;5929750;29;20052;-76
2024/01/20 06:23:49;;;;;;;18.25;7.28;;;;;;;-1.15;100.00;101934.56;5939709;29;20087;-76
2024/01/20 06:26:56;;;;;;;16.60;6.65;;;;;;;-1.24;100.00;101930.47;5954332;29;20038;-76
2024/01/20 06:29:52;;;;;;;17.73;7.10;;;;;;;-1.20;100.00;101939.03;5949685;29;20038;-75
2024/01/20 06:33:14;;;;;;;18.57;7.23;;;;;;;-1.19;100.00;101948.53;5954760;29;20091;-76
2024/01/20 06:36:10;;;;;;;19.35;6.68;;;;;;;-1.30;100.00;101929.75;5938235;29;20039;-76
2024/01/20 06:43:57;;;;;;;24.98;7.63;;;;;;;-1.23;100.00;101942.59;5940314;29;20031;-76
2024/01/20 06:47:12;;;;;;;18.92;6.07;;;;;;;-1.34;100.00;101929.00;5941007;29;20467;-75
2024/01/20 06:50:36;;;;;;;;;;;;;;;;;;;;;
2024/01/20 07:01:54;;;;;;;18.45;6.15;;;;;;;-1.47;100.00;101932.81;5913816;29;20074;-76
2024/01/20 07:05:57;;;;;;;17.05;6.03;;;;;;;-1.29;100.00;101981.75;5889144;29;20049;-77
2024/01/20 07:09:11;;;;;;;15.90;5.20;;;;;;;-1.49;100.00;101945.00;5839298;29;20072;-75
2024/01/20 07:12:38;;;;;;;17.20;5.95;;;;;;;-1.40;100.00;101967.31;5843709;29;20045;-75
2024/01/20 07:16:17;;;;;;;16.23;6.57;;;;;;;-1.52;100.00;101947.66;5871749;29;20096;-75
2024/01/20 07:19:32;;;;;;;17.27;5.75;;;;;;;-1.38;100.00;101965.53;5848518;29;20060;-77
2024/01/20 07:22:27;;;;;;;19.00;5.32;;;;;;;-1.37;100.00;101975.91;5870826;29;20269;-75
2024/01/20 07:29:15;;;;;;;17.42;5.95;;;;;;;-1.42;100.00;101971.72;5953677;29;20263;-76
2024/01/20 07:36:03;;;;;;;16.10;5.95;;;;;;;-1.42;100.00;101975.19;5951589;29;20028;-76
2024/01/20 08:06:24;;;;;;;20.23;7.38;;;;;;;-1.49;100.00;102010.00;5820192;29;20421;-75
2024/01/20 08:19:41;;;;;;;23.85;8.48;;;;;;;-1.37;100.00;102007.13;7372209;23;20078;-77
2024/01/20 08:26:49;;;;;;;18.83;6.97;;;;;;;-1.10;100.00;102034.16;5952093;28;20039;-77
2024/01/20 08:29:45;;;;;;;23.23;7.28;;;;;;;-0.88;100.00;102037.06;5966142;28;20107;-75
2024/01/20 08:32:41;;;;;;;21.53;7.10;;;;;;;-0.81;100.00;102038.59;5944924;28;20027;-76
2024/01/20 08:35:36;;;;;;;18.00;6.53;;;;;;;-0.68;100.00;102037.38;5984009;28;20292;-75
2024/01/20 08:38:32;;;;;;;20.77;7.90;;;;;;;-0.51;100.00;102063.81;5989876;28;20037;-74
2024/01/20 08:41:27;;;;;;;20.10;6.83;;;;;;;-0.52;100.00;102049.09;5985547;28;20328;-76
2024/01/20 08:44:22;;;;;;;18.73;6.93;;;;;;;-0.41;100.00;102052.25;5975100;28;20378;-77
2024/01/20 08:47:18;;;;;;;18.47;6.53;;;;;;;-0.35;100.00;102059.88;5980307;28;20036;-75
2024/01/20 08:50:21;;;;;;;15.53;6.47;;;;;;;-0.26;100.00;102058.75;5969198;28;20106;-77
2024/01/20 08:53:20;;;;;;;18.52;6.65;;;;;;;-0.24;100.00;102059.56;5950772;28;20051;-76
2024/01/20 08:56:16;;;;;;;23.10;7.88;;;;;;;-0.11;100.00;102068.75;5939649;29;20502;-76
2024/01/20 08:59:19;;;;;;;17.98;6.45;;;;;;;-0.13;100.00;102052.28;5935381;29;20032;-77
2024/01/20 09:02:16;;;;;;;17.80;6.40;;;;;;;-0.06;100.00;102051.22;5957680;28;20129;-76
2024/01/20 09:05:13;;;;;;;15.65;6.60;;;;;;;0.17;100.00;102060.94;5957607;28;20447;-74
2024/01/20 09:08:10;;;;;;;16.98;6.10;;;;;;;0.22;100.00;102066.88;5975186;28;20164;-75
2024/01/20 09:11:05;;;;;;;20.45;8.23;;;;;;;0.27;100.00;102057.16;5972588;28;20368;-75
2024/01/20 09:14:01;;;;;;;21.80;7.53;;;;;;;0.32;100.00;102056.13;5985362;28;20098;-75
2024/01/20 09:16:56;;;;;;;15.70;6.47;;;;;;;0.43;100.00;102055.78;5989979;28;20035;-74
2024/01/20 09:19:52;;;;;;;16.10;6.18;;;;;;;0.55;100.00;102071.88;5979918;28;20585;-74
2024/01/20 09:22:47;;;;;;;18.20;7.03;;;;;;;0.54;100.00;102064.13;5984264;28;20035;-75
2024/01/20 09:25:42;;;;;;;16.05;6.28;;;;;;;0.72;100.00;102073.94;5973650;28;20095;-74
2024/01/20 09:28:38;;;;;;;17.50;6.23;;;;;;;0.71;100.00;102093.09;5978816;28;20428;-73
2024/01/20 09:31:33;;;;;;;19.88;6.88;;;;;;;0.74;100.00;102081.72;5981702;28;20023;-74
2024/01/20 09:34:28;;;;;;;21.03;6.73;;;;;;;0.66;100.00;102081.97;5980347;28;20035;-73
2024/01/20 09:37:24;;;;;;;21.27;6.57;;;;;;;0.72;100.00;102084.38;5973608;28;20287;-75
2024/01/20 09:40:19;;;;;;;17.10;6.70;;;;;;;0.78;100.00;102097.25;5982498;28;20098;-75
2024/01/20 09:43:15;;;;;;;18.83;6.60;;;;;;;0.63;100.00;102084.69;6002079;28;20063;-74
2024/01/20 09:46:11;;;;;;;14.93;6.25;;;;;;;0.78;100.00;102094.63;5986123;28;20090;-73
2024/01/20 09:49:06;;;;;;;14.75;5.97;;;;;;;0.86;100.00;102120.47;5982764;28;20066;-75
2024/01/20 09:52:07;;;;;;;18.08;6.28;;;;;;;0.90;100.00;102106.41;5983109;28;20054;-72
2024/01/20 09:55:21;;;;;;;14.38;6.18;;;;;;;0.96;100.00;102108.81;5993295;28;20039;-72
2024/01/20 09:58:17;;;;;;;19.35;6.22;;;;;;;0.97;100.00;102105.31;5988288;28;20098;-73
2024/01/20 10:01:12;;;;;;;15.45;6.18;;;;;;;0.99;100.00;102108.72;5987222;28;20745;-74
2024/01/20 10:04:09;;;;;;;17.75;6.53;;;;;;;1.10;100.00;102117.91;5960770;28;20031;-75
2024/01/20 10:07:04;;;;;;;15.70;6.05;;;;;;;1.06;100.00;102098.03;5975629;28;20086;-72
2024/01/20 10:09:59;;;;;;;15.27;6.00;;;;;;;1.31;100.00;102102.41;5974587;28;20031;-73
2024/01/20 10:12:55;;;;;;;15.37;6.13;;;;;;;1.42;100.00;102097.66;5973646;28;20119;-74
2024/01/20 10:15:50;;;;;;;20.60;6.43;;;;;;;1.52;100.00;102104.28;5983221;28;20433;-73
2024/01/20 10:18:45;;;;;;;18.00;6.03;;;;;;;1.43;100.00;102097.63;5981495;28;20043;-73
2024/01/20 10:21:41;;;;;;;17.00;5.78;;;;;;;1.35;100.00;102096.19;5977743;28;20411;-74
2024/01/20 10:24:52;;;;;;;17.88;5.50;;;;;;;1.27;100.00;102098.22;5988374;28;20248;-73
2024/01/20 10:27:49;;;;;;;13.98;5.57;;;;;;;1.39;100.00;102090.78;5976017;28;20036;-72
2024/01/20 10:30:44;;;;;;;13.55;5.53;;;;;;;1.53;100.00;102090.28;5973806;28;20038;-73
2024/01/20 10:33:39;;;;;;;16.77;6.27;;;;;;;1.50;100.00;102093.00;5971181;28;20031;-72
2024/01/20 10:36:35;;;;;;;21.07;6.03;;;;;;;1.54;100.00;102097.25;5988368;28;20035;-72
2024/01/20 10:39:32;;;;;;;11.93;4.85;;;;;;;1.66;100.00;102107.25;5967549;28;20035;-73
2024/01/20 10:42:30;;;;;;;16.13;5.28;;;;;;;1.52;100.00;102096.44;5961235;28;20039;-73
2024/01/20 10:45:31;;;;;;;16.75;6.40;;;;;;;1.56;100.00;102093.66;5989248;28;20043;-73
2024/01/20 10:48:36;;;;;;;14.55;6.15;;;;;;;1.67;100.00;102108.97;5973864;28;20038;-73
2024/01/20 10:51:31;;;;;;;17.83;6.15;;;;;;;1.61;100.00;102110.03;5987766;28;20039;-73
2024/01/20 10:54:27;;;;;;;15.85;5.32;;;;;;;1.86;100.00;102110.00;5997618;28;20123;-72
2024/01/20 10:57:23;;;;;;;16.55;6.18;;;;;;;1.77;100.00;102110.31;5986632;28;20467;-73
2024/01/20 11:00:19;;;;;;;13.77;5.27;;;;;;;1.85;100.00;102102.22;5977142;28;20044;-73
2024/01/20 11:03:14;;;;;;;15.65;5.68;;;;;;;1.87;100.00;102101.25;5985905;28;20475;-72
2024/01/20 11:06:20;;;;;;;21.30;6.93;;;;;;;1.80;100.00;102102.38;5975622;28;20031;-73
2024/01/20 11:09:22;;;;;;;14.45;5.32;;;;;;;1.75;100.00;102102.56;5996879;28;20034;-73
2024/01/20 11:12:22;;;;;;;14.80;5.22;;;;;;;1.77;100.00;102090.25;5980189;28;20065;-72
2024/01/20 11:15:18;;;;;;;13.95;4.85;;;;;;;1.85;100.00;102116.13;5980874;28;20402;-73
2024/01/20 11:18:17;;;;;;;15.98;5.70;;;;;;;1.87;100.00;102116.09;5980996;28;20041;-73
2024/01/20 11:21:16;;;;;;;13.80;5.15;;;;;;;2.06;100.00;102106.66;5985584;28;20130;-72
2024/01/20 11:24:14;;;;;;;14.93;5.00;;;;;;;1.98;100.00;102117.41;5981798;28;20179;-72
2024/01/20 11:27:10;;;;;;;15.70;4.70;;;;;;;1.90;100.00;102111.59;5971418;28;20043;-73
2024/01/20 11:30:06;;;;;;;17.37;4.87;;;;;;;1.91;100.00;102109.81;5990355;28;20457;-72
2024/01/20 11:33:02;;;;;;;12.00;4.55;;;;;;;1.96;100.00;102111.34;5974422;28;20466;-72
2024/01/20 11:35:57;;;;;;;15.30;4.85;;;;;;;1.89;100.00;102104.66;5983450;28;20028;-72
2024/01/20 11:38:52;;;;;;;13.73;5.33;;;;;;;1.73;100.00;102112.22;5991240;28;20613;-72
2024/01/20 11:41:58;;;;;;;14.18;5.65;;;;;;;1.72;100.00;102120.09;5968636;28;20474;-72
2024/01/20 11:44:54;;;;;;;12.15;4.60;;;;;;;1.69;100.00;102121.06;5981436;28;20487;-72
2024/01/20 11:47:49;;;;;;;13.20;4.45;;;;;;;1.60;100.00;102110.94;5975336;28;20031;-73
2024/01/20 11:50:44;;;;;;;16.80;5.43;;;;;;;1.57;100.00;102118.03;5984915;28;20046;-73
2024/01/20 11:53:40;;;;;;;15.43;5.30;;;;;;;1.47;100.00;102119.28;5974550;28;20031;-73
2024/01/20 11:56:35;;;;;;;15.43;5.65;;;;;;;1.48;100.00;102134.91;5987223;28;20287;-72
2024/01/20 11:59:31;;;;;;;17.50;4.63;;;;;;;1.48;100.00;102134.03;5994288;28;20121;-72
2024/01/20 12:02:27;;;;;;;15.17;4.53;;;;;;;1.43;100.00;102136.81;5969463;28;20051;-73
2024/01/20 12:05:23;;;;;;;12.75;5.18;;;;;;;1.40;100.00;102134.31;5978253;28;21639;-72
2024/01/20 12:08:19;;;;;;;10.98;4.13;;;;;;;1.38;100.00;102128.28;5973736;28;20070;-72
2024/01/20 12:11:19;;;;;;;10.63;5.13;;;;;;;1.34;100.00;102120.59;5977419;28;20027;-72
2024/01/20 12:14:14;;;;;;;13.68;5.20;;;;;;;1.35;100.00;102122.31;5977030;28;20046;-72
2024/01/20 12:17:10;;;;;;;14.53;4.10;;;;;;;1.38;100.00;102122.22;5977268;28;20118;-73
2024/01/20 12:20:06;;;;;;;15.30;5.30;;;;;;;1.48;100.00;102114.00;5979024;28;20039;-72
2024/01/20 12:23:02;;;;;;;14.25;4.82;;;;;;;1.51;100.00;102111.28;5970420;28;20027;-72
2024/01/20 12:25:59;;;;;;;14.65;4.38;;;;;;;1.48;100.00;102102.69;5977781;28;20127;-72
2024/01/20 12:28:55;;;;;;;12.90;5.25;;;;;;;1.56;100.00;102118.94;5974184;28;20434;-72
2024/01/20 12:31:50;;;;;;;13.27;4.30;;;;;;;1.61;100.00;102119.63;5985857;28;20081;-73
2024/01/20 12:34:46;;;;;;;10.23;4.07;;;;;;;1.62;100.00;102116.13;5968985;28;20039;-72
2024/01/20 12:37:41;;;;;;;11.63;5.00;;;;;;;1.61;100.00;102104.81;5981434;28;20110;-73
2024/01/20 12:40:36;;;;;;;10.93;4.37;;;;;;;1.65;100.00;102113.41;5978104;28;20043;-72
2024/01/20 12:43:32;;;;;;;14.00;4.30;;;;;;;1.68;100.00;102114.16;5970318;28;20423;-72
2024/01/20 12:46:27;;;;;;;11.38;4.38;;;;;;;1.68;100.00;102110.69;5968680;28;20271;-73
2024/01/20 12:49:22;;;;;;;13.97;4.87;;;;;;;1.65;100.00;102121.25;5974381;28;20049;-72
2024/01/20 12:52:18;;;;;;;13.23;4.47;;;;;;;1.62;100.00;102124.81;5973109;28;20027;-72
2024/01/20 12:55:14;;;;;;;9.80;3.60;;;;;;;1.63;100.00;102123.06;5973745;28;20274;-72
2024/01/20 12:58:09;;;;;;;12.73;4.13;;;;;;;1.63;100.00;102117.84;5974869;28;20116;-72
2024/01/20 13:01:06;;;;;;;16.63;5.53;;;;;;;1.67;100.00;102125.50;5966048;28;20268;-72
2024/01/20 13:04:02;;;;;;;10.75;4.63;;;;;;;1.55;100.00;102130.31;5973476;28;20285;-73
2024/01/20 13:06:57;;;;;;;14.02;4.80;;;;;;;1.67;100.00;102132.50;5968079;28;20510;-73
2024/01/20 13:09:52;;;;;;;10.33;3.93;;;;;;;1.64;100.00;102117.78;5973653;28;20035;-73
2024/01/20 13:12:48;;;;;;;13.23;4.53;;;;;;;1.70;100.00;102132.38;5981436;28;20035;-72
2024/01/20 13:15:43;;;;;;;13.97;4.07;;;;;;;1.73;100.00;102127.03;5983544;28;20789;-72
2024/01/20 13:18:38;;;;;;;14.55;4.35;;;;;;;1.70;100.00;102120.16;5976993;28;20034;-72
2024/01/20 13:21:34;;;;;;;12.20;4.40;;;;;;;1.74;100.00;102131.34;5985273;28;20035;-72
2024/01/20 13:24:29;;;;;;;10.73;4.40;;;;;;;1.80;100.00;102138.97;5982978;28;20603;-72
2024/01/20 13:27:25;;;;;;;12.60;3.87;;;;;;;1.65;100.00;102132.56;5983739;28;20050;-73
2024/01/20 13:30:20;;;;;;;9.13;4.50;;;;;;;1.61;100.00;102144.00;5982362;28;20341;-72
2024/01/20 13:33:15;;;;;;;9.53;3.03;;;;;;;1.50;100.00;102147.91;5969994;28;20510;-72
2024/01/20 13:36:11;;;;;;;9.93;3.83;;;;;;;1.38;100.00;102154.41;5970961;28;20383;-73
2024/01/20 13:39:06;;;;;;;7.57;3.33;;;;;;;1.34;100.00;102163.25;5968937;28;20351;-73
2024/01/20 13:42:01;;;;;;;10.20;4.40;;;;;;;1.23;100.00;102169.72;5964660;28;20035;-73
2024/01/20 13:44:57;;;;;;;11.93;3.90;;;;;;;1.13;100.00;102171.81;5975381;28;20035;-73
2024/01/20 13:47:52;;;;;;;11.07;4.03;;;;;;;1.07;100.00;102167.63;5986104;28;20074;-73
2024/01/20 13:50:48;;;;;;;9.87;3.80;;;;;;;0.99;100.00;102161.81;5963468;28;20036;-72
2024/01/20 13:53:43;;;;;;;10.70;3.72;;;;;;;0.97;100.00;102168.00;5985438;28;20038;-73
2024/01/20 13:56:38;;;;;;;10.27;3.37;;;;;;;0.87;100.00;102162.19;5986742;28;20035;-73
2024/01/20 13:59:34;;;;;;;11.27;4.43;;;;;;;0.87;100.00;102171.81;5974049;28;20298;-74
2024/01/20 14:02:30;;;;;;;11.95;4.30;;;;;;;0.77;100.00;102176.44;5981356;28;20467;-73
2024/01/20 14:05:25;;;;;;;10.50;4.40;;;;;;;0.71;100.00;102176.63;5985769;28;20546;-73
2024/01/20 14:08:23;;;;;;;9.50;4.57;;;;;;;0.65;100.00;102184.69;5982505;28;20278;-73
2024/01/20 14:11:18;;;;;;;9.27;3.58;;;;;;;0.65;100.00;102187.28;5989269;28;20286;-73
2024/01/20 14:14:14;;;;;;;10.40;4.30;;;;;;;0.58;100.00;102175.31;5988856;28;20102;-73
2024/01/20 14:17:09;;;;;;;15.73;4.55;;;;;;;0.56;100.00;102183.19;5984874;28;20279;-73
2024/01/20 14:20:06;;;;;;;13.23;4.22;;;;;;;0.71;100.00;102194.91;5983871;28;20086;-73
2024/01/20 14:23:01;;;;;;;11.98;4.45;;;;;;;0.68;100.00;102188.94;5981872;28;20030;-72
2024/01/20 14:25:56;;;;;;;8.93;4.03;;;;;;;0.70;100.00;102200.19;5976192;28;20039;-73
2024/01/20 14:28:52;;;;;;;10.77;3.90;;;;;;;0.76;100.00;102195.63;5991308;28;20361;-73
2024/01/20 14:31:48;;;;;;;8.73;3.93;;;;;;;0.73;100.00;102189.66;5981810;28;20572;-73
2024/01/20 14:34:43;;;;;;;11.85;4.80;;;;;;;0.83;100.00;102197.16;5984506;28;20478;-72
2024/01/20 14:37:39;;;;;;;12.00;4.63;;;;;;;0.91;100.00;102209.97;5986910;28;20031;-73
2024/01/20 14:40:35;;;;;;;10.65;4.55;;;;;;;0.87;100.00;102195.31;5991458;28;20126;-73
2024/01/20 14:43:30;;;;;;;8.15;3.90;;;;;;;0.90;100.00;102198.66;5992577;28;20034;-73
2024/01/20 14:46:25;;;;;;;10.77;4.18;;;;;;;0.98;100.00;102201.88;5989571;28;20035;-73
2024/01/20 14:49:22;;;;;;;10.03;3.80;;;;;;;0.98;100.00;102199.25;5987374;28;20446;-73
2024/01/20 14:52:18;;;;;;;11.80;4.25;;;;;;;0.99;100.00;102198.38;5980882;28;20486;-73